Time;durP1;ratioP1;P1;durP2;ratioP2;P2;SDS_P1;SDS_P2;PMS_P1;PMS_P2;Temp;Humidity;BMP_temperature;BMP_pressure;BME280_temperature;BME280_humidity;BME280_pressure;Samples;Min_cycle;Max_cycle;Signal;HPM_P1;HPM_P2
2023/04/01 00:02:30;;;;;;;10.60;2.00;;;6.90;99.90;;;;;;6129274;23;20068;-87
2023/04/01 00:05:24;;;;;;;2.95;1.25;;;6.90;99.90;;;;;;6150777;23;20029;-86
2023/04/01 00:08:11;;;;;;;9.73;1.58;;;6.90;1.00;;;;;;6146241;23;20460;-88
2023/04/01 00:10:58;;;;;;;8.05;1.73;;;6.80;99.90;;;;;;6148778;23;20036;-89
2023/04/01 00:13:46;;;;;;;5.15;1.70;;;6.80;99.90;;;;;;6149226;23;20418;-88
2023/04/01 00:16:33;;;;;;;8.18;2.08;;;6.80;94.10;;;;;;6150644;23;20458;-89
2023/04/01 00:19:23;;;;;;;5.78;1.63;;;6.80;1.00;;;;;;6149487;23;20421;-89
2023/04/01 00:22:17;;;;;;;5.32;1.70;;;6.80;1.00;;;;;;6149816;23;20064;-87
2023/04/01 00:25:05;;;;;;;9.55;1.48;;;6.80;1.00;;;;;;6152177;23;20110;-87
2023/04/01 00:27:52;;;;;;;8.80;1.92;;;6.80;1.00;;;;;;6129001;23;20419;-87
2023/04/01 00:30:40;;;;;;;10.70;1.48;;;6.80;99.90;;;;;;6151485;23;20033;-88
2023/04/01 00:33:30;;;;;;;5.75;1.63;;;6.90;99.90;;;;;;6149817;23;20332;-88
2023/04/01 00:36:21;;;;;;;8.50;1.45;;;6.80;99.90;;;;;;6128505;23;20033;-88
2023/04/01 00:39:10;;;;;;;7.65;1.55;;;6.80;1.00;;;;;;6152058;23;20029;-89
2023/04/01 00:41:59;;;;;;;9.73;1.52;;;6.80;99.90;;;;;;6148947;23;20122;-86
2023/04/01 00:44:57;;;;;;;3.10;1.33;;;6.80;99.90;;;;;;6129152;23;20017;-88
2023/04/01 00:47:46;;;;;;;6.90;1.80;;;6.80;1.00;;;;;;6129323;23;20026;-85
2023/04/01 00:50:35;;;;;;;5.22;1.40;;;6.80;99.90;;;;;;6130917;23;20448;-87
2023/04/01 00:53:23;;;;;;;6.30;1.73;;;6.80;1.00;;;;;;6149562;23;20356;-87
2023/04/01 00:56:16;;;;;;;7.22;1.60;;;6.80;1.00;;;;;;6152732;23;20057;-88
2023/04/01 00:59:14;;;;;;;6.30;1.30;;;6.80;1.00;;;;;;6129404;23;20108;-86
2023/04/01 01:02:10;;;;;;;6.68;1.67;;;6.70;99.90;;;;;;6128856;23;20114;-84
2023/04/01 01:04:59;;;;;;;6.30;1.63;;;6.70;99.90;;;;;;6111605;23;20030;-87
2023/04/01 01:08:15;;;;;;;4.15;1.48;;;6.70;99.90;;;;;;6151288;23;20021;-87
2023/04/01 01:11:12;;;;;;;7.60;1.85;;;6.70;99.90;;;;;;6151394;23;20488;-84
2023/04/01 01:14:43;;;;;;;10.65;1.80;;;6.70;99.90;;;;;;6150572;23;20048;-88
2023/04/01 01:18:11;;;;;;;4.35;1.20;;;6.80;99.90;;;;;;6149617;23;20038;-86
2023/04/01 01:21:31;;;;;;;6.63;1.80;;;6.80;99.90;;;;;;6149910;23;20033;-85
2023/04/01 01:24:40;;;;;;;5.97;1.42;;;6.70;39.70;;;;;;6128749;23;20026;-89
2023/04/01 01:27:29;;;;;;;6.28;1.58;;;6.70;1.00;;;;;;6154467;23;20041;-88
2023/04/01 01:30:55;;;;;;;10.93;2.00;;;6.70;99.90;;;;;;6160069;23;20025;-86
2023/04/01 01:34:20;;;;;;;7.75;1.73;;;6.70;99.90;;;;;;6158579;23;20037;-89
2023/04/01 01:37:17;;;;;;;2.58;1.10;;;6.70;99.90;;;;;;6129488;23;20095;-88
2023/04/01 01:40:11;;;;;;;6.65;1.05;;;6.70;99.90;;;;;;6128843;23;20029;-86
2023/04/01 01:43:09;;;;;;;3.28;1.02;;;6.70;99.90;;;;;;6149233;23;20022;-86
2023/04/01 01:46:00;;;;;;;3.97;1.05;;;6.70;1.00;;;;;;6148248;23;20425;-85
2023/04/01 01:48:50;;;;;;;4.28;1.02;;;6.60;99.90;;;;;;6150919;23;20443;-90
2023/04/01 01:51:39;;;;;;;3.30;1.15;;;6.60;1.00;;;;;;6128343;23;20036;-87
2023/04/01 01:54:37;;;;;;;4.93;1.20;;;6.60;1.00;;;;;;6151542;23;20353;-87
2023/04/01 01:57:31;;;;;;;3.45;1.13;;;6.60;1.00;;;;;;6152513;22;20022;-87
2023/04/01 02:00:19;;;;;;;3.58;1.10;;;6.50;1.00;;;;;;6152371;23;20030;-89
2023/04/01 02:03:07;;;;;;;2.15;0.82;;;6.50;1.00;;;;;;6150621;23;20024;-91
2023/04/01 02:05:57;;;;;;;2.45;0.80;;;6.50;99.90;;;;;;6149844;23;20146;-86
2023/04/01 02:09:10;;;;;;;2.13;0.80;;;6.50;99.90;;;;;;6150867;23;20125;-85
2023/04/01 02:12:05;;;;;;;5.40;1.40;;;6.50;99.90;;;;;;6151202;23;20465;-88
2023/04/01 02:15:05;;;;;;;2.42;0.88;;;6.50;42.30;;;;;;6128571;23;20048;-87
2023/04/01 02:17:53;;;;;;;1.63;0.93;;;6.50;1.00;;;;;;6149219;23;20338;-88
2023/04/01 02:20:43;;;;;;;1.73;0.80;;;6.40;1.00;;;;;;6149492;23;20332;-88
2023/04/01 02:23:35;;;;;;;4.10;0.88;;;6.40;99.90;;;;;;6150112;23;20034;-86
2023/04/01 02:26:26;;;;;;;1.33;0.77;;;6.40;99.90;;;;;;6149777;23;20385;-90
2023/04/01 02:29:14;;;;;;;1.52;1.17;;;6.40;1.00;;;;;;6108792;23;20034;-86
2023/04/01 02:32:02;;;;;;;1.63;0.70;;;6.40;99.90;;;;;;6149207;23;20400;-88
2023/04/01 02:34:53;;;;;;;3.10;0.98;;;6.40;99.90;;;;;;6128531;23;20026;-88
2023/04/01 02:37:42;;;;;;;3.35;0.80;;;6.40;99.90;;;;;;6151333;23;20382;-88
2023/04/01 02:40:29;;;;;;;1.02;0.73;;;6.40;1.00;;;;;;6128307;23;20126;-87
2023/04/01 02:43:18;;;;;;;1.02;0.68;;;6.40;78.60;;;;;;6149109;23;20060;-87
2023/04/01 02:46:06;;;;;;;1.55;0.70;;;6.40;27.50;;;;;;6149115;23;20425;-88
2023/04/01 02:48:54;;;;;;;2.05;0.80;;;6.30;99.90;;;;;;6150568;23;20032;-86
2023/04/01 02:51:44;;;;;;;2.95;1.00;;;6.30;99.90;;;;;;6151014;23;20180;-87
2023/04/01 02:54:34;;;;;;;4.13;0.90;;;6.30;99.90;;;;;;6150100;23;20033;-89
2023/04/01 02:57:21;;;;;;;2.50;1.00;;;6.30;99.90;;;;;;6128879;23;20033;-88
2023/04/01 03:00:17;;;;;;;1.48;1.00;;;6.30;99.90;;;;;;6150978;23;20040;-89
2023/04/01 03:03:07;;;;;;;5.25;1.05;;;6.30;99.90;;;;;;6150045;23;20096;-87
2023/04/01 03:05:58;;;;;;;1.08;0.70;;;6.20;99.90;;;;;;6151452;23;20026;-90
2023/04/01 03:08:46;;;;;;;3.40;0.85;;;6.20;99.90;;;;;;6134617;23;20393;-90
2023/04/01 03:11:33;;;;;;;3.58;1.00;;;6.20;1.00;;;;;;6157639;23;20432;-88
2023/04/01 03:14:22;;;;;;;1.73;0.85;;;6.20;99.90;;;;;;6148228;23;20558;-88
2023/04/01 03:17:12;;;;;;;2.72;0.90;;;6.20;99.90;;;;;;6152045;23;20057;-89
2023/04/01 03:19:59;;;;;;;4.93;0.90;;;6.10;1.00;;;;;;6160912;23;20177;-87
2023/04/01 03:22:51;;;;;;;3.13;0.90;;;6.00;1.00;;;;;;6158419;23;20025;-88
2023/04/01 03:25:39;;;;;;;1.80;0.95;;;6.10;92.40;;;;;;6151501;23;20060;-88
2023/04/01 03:28:28;;;;;;;2.50;1.00;;;6.00;11.20;;;;;;6129510;23;20117;-88
2023/04/01 03:31:18;;;;;;;3.97;0.90;;;6.00;40.40;;;;;;6149853;23;20025;-90
2023/04/01 03:34:10;;;;;;;0.82;0.80;;;6.00;1.00;;;;;;6148831;23;20096;-86
2023/04/01 03:36:57;;;;;;;1.77;1.10;;;6.00;99.90;;;;;;6153527;23;20030;-87
2023/04/01 03:39:45;;;;;;;1.73;0.98;;;6.00;99.90;;;;;;6150952;23;20068;-87
2023/04/01 03:42:32;;;;;;;5.72;1.10;;;6.00;99.90;;;;;;6151156;23;20393;-88
2023/04/01 03:45:22;;;;;;;1.38;0.85;;;6.00;1.00;;;;;;6149890;23;20111;-88
2023/04/01 03:48:09;;;;;;;0.85;0.80;;;6.00;99.90;;;;;;6150544;23;20425;-88
2023/04/01 03:50:56;;;;;;;4.88;0.82;;;6.00;99.90;;;;;;6150225;23;20021;-86
2023/04/01 03:53:45;;;;;;;1.92;1.05;;;6.00;99.90;;;;;;6111697;23;20029;-87
2023/04/01 03:56:32;;;;;;;0.88;0.70;;;5.90;88.70;;;;;;6150983;23;20325;-85
2023/04/01 03:59:20;;;;;;;0.85;0.70;;;5.90;99.90;;;;;;6129026;23;20029;-87
2023/04/01 04:02:38;;;;;;;3.00;1.45;;;5.90;1.00;;;;;;6150669;23;20040;-87
2023/04/01 04:05:28;;;;;;;1.17;0.70;;;5.80;1.00;;;;;;6130915;23;20094;-88
2023/04/01 04:08:18;;;;;;;3.88;0.80;;;5.80;1.00;;;;;;6131060;23;20034;-86
2023/04/01 04:11:05;;;;;;;2.85;1.00;;;5.80;1.00;;;;;;6152358;23;20095;-89
2023/04/01 04:14:02;;;;;;;2.08;0.85;;;5.70;99.90;;;;;;6153053;23;20107;-88
2023/04/01 04:16:52;;;;;;;3.55;0.90;;;5.70;54.80;;;;;;6153297;23;20025;-88
2023/04/01 04:19:39;;;;;;;1.58;0.70;;;5.60;99.90;;;;;;6150579;23;20037;-89
2023/04/01 04:22:27;;;;;;;1.95;0.80;;;5.60;99.90;;;;;;6152168;23;20137;-88
2023/04/01 04:26:00;;;;;;;1.63;0.93;;;5.50;1.00;;;;;;6150365;23;20036;-88
2023/04/01 04:28:48;;;;;;;;;;;5.50;99.90;;;;;;6150843;23;20022;-88
2023/04/01 04:31:35;;;;;;;3.55;1.15;;;5.50;1.00;;;;;;6152118;23;19925;-86
2023/04/01 04:34:28;;;;;;;3.85;1.23;;;5.50;32.10;;;;;;6152231;23;20083;-86
2023/04/01 04:37:27;;;;;;;3.80;1.05;;;5.50;99.90;;;;;;6130246;23;20049;-87
2023/04/01 04:40:15;;;;;;;8.30;1.33;;;5.60;99.90;;;;;;6149604;23;20033;-87
2023/04/01 04:43:02;;;;;;;5.90;1.15;;;5.60;99.90;;;;;;6149179;23;20040;-88
2023/04/01 04:45:52;;;;;;;3.80;1.50;;;5.70;99.90;;;;;;6151883;23;20116;-90
2023/04/01 04:48:43;;;;;;;7.97;1.80;;;5.70;99.90;;;;;;6150225;23;20735;-89
2023/04/01 04:51:37;;;;;;;10.10;1.50;;;5.80;99.90;;;;;;6129211;23;20022;-89
2023/04/01 04:54:30;;;;;;;6.43;1.40;;;5.90;1.00;;;;;;6151243;23;20756;-86
2023/04/01 04:57:17;;;;;;;5.53;1.48;;;6.10;99.90;;;;;;6151377;23;20114;-88
2023/04/01 05:00:07;;;;;;;2.83;1.30;;;6.10;99.90;;;;;;6151815;23;20034;-88
2023/04/01 05:02:54;;;;;;;5.15;1.90;;;6.10;99.90;;;;;;6150397;23;20087;-86
2023/04/01 05:05:49;;;;;;;5.03;1.85;;;6.10;99.90;;;;;;6155264;23;20340;-90
2023/04/01 05:08:41;;;;;;;9.90;3.33;;;6.20;1.00;;;;;;6166504;23;20026;-88
2023/04/01 05:11:28;;;;;;;4.30;1.33;;;6.20;24.70;;;;;;6141242;23;20048;-84
2023/04/01 05:14:16;;;;;;;3.83;1.15;;;6.20;99.90;;;;;;6138206;23;20029;-86
2023/04/01 05:17:03;;;;;;;6.82;1.30;;;6.30;1.00;;;;;;6142366;23;20026;-86
2023/04/01 05:19:50;;;;;;;4.32;1.20;;;6.50;1.00;;;;;;6145909;23;20108;-89
2023/04/01 05:22:46;;;;;;;7.18;1.20;;;6.50;99.90;;;;;;6148538;23;20022;-86
2023/04/01 05:25:45;;;;;;;4.07;1.08;;;6.50;1.00;;;;;;6166704;23;20025;-86
2023/04/01 05:28:41;;;;;;;2.22;1.10;;;6.50;99.90;;;;;;6135039;23;20029;-91
2023/04/01 05:31:29;;;;;;;3.20;1.05;;;6.60;22.10;;;;;;6157288;23;20064;-88
2023/04/01 05:34:18;;;;;;;4.38;1.30;;;6.60;1.00;;;;;;6158016;23;20080;-88
2023/04/01 05:37:07;;;;;;;4.43;1.25;;;6.60;1.00;;;;;;6157366;23;20102;-86
2023/04/01 05:39:58;;;;;;;4.15;1.35;;;6.70;99.90;;;;;;6131026;23;20036;-87
2023/04/01 05:42:47;;;;;;;5.25;1.20;;;6.70;70.00;;;;;;6130260;23;20033;-85
2023/04/01 05:45:34;;;;;;;5.72;1.40;;;6.70;1.00;;;;;;6152845;23;20025;-86
2023/04/01 05:48:24;;;;;;;5.50;1.23;;;6.70;99.90;;;;;;6152753;23;20094;-87
2023/04/01 05:51:16;;;;;;;4.55;1.60;;;6.80;99.90;;;;;;6149205;23;20494;-88
2023/04/01 05:54:05;;;;;;;5.97;1.65;;;6.80;99.90;;;;;;6128737;23;20036;-88
2023/04/01 05:56:52;;;;;;;5.03;1.40;;;6.90;58.00;;;;;;6151605;23;20104;-85
2023/04/01 05:59:42;;;;;;;7.78;1.63;;;6.80;6.20;;;;;;6151597;23;20033;-86
2023/04/01 06:02:32;;;;;;;2.08;1.15;;;6.90;1.00;;;;;;6149802;23;20381;-87
2023/04/01 06:05:38;;;;;;;3.83;1.20;;;6.90;1.00;;;;;;6151176;23;20274;-86
2023/04/01 06:08:25;;;;;;;6.65;2.03;;;6.90;1.00;;;;;;6149517;23;20030;-85
2023/04/01 06:11:20;;;;;;;3.08;1.35;;;7.00;99.90;;;;;;6149856;23;20029;-88
2023/04/01 06:14:35;;;;;;;5.97;1.45;;;7.00;99.90;;;;;;6150339;23;20021;-88
2023/04/01 06:17:43;;;;;;;3.08;1.00;;;6.90;99.90;;;;;;6150210;23;20040;-89
2023/04/01 06:20:54;;;;;;;4.15;1.30;;;7.00;99.90;;;;;;6128206;23;20057;-87
2023/04/01 06:23:50;;;;;;;3.92;1.10;;;7.00;99.90;;;;;;6129963;23;20017;-88
2023/04/01 06:26:54;;;;;;;3.65;1.05;;;7.00;99.90;;;;;;6127889;23;20104;-88
2023/04/01 06:30:22;;;;;;;2.58;1.00;;;7.10;99.90;;;;;;6131675;23;20032;-88
2023/04/01 06:33:29;;;;;;;3.08;0.90;;;7.00;99.90;;;;;;6152152;23;20025;-92
2023/04/01 06:36:49;;;;;;;3.08;1.73;;;7.10;99.90;;;;;;6153273;23;20032;-88
2023/04/01 06:39:55;;;;;;;3.53;1.02;;;7.10;99.60;;;;;;6152729;23;20036;-91
2023/04/01 06:43:03;;;;;;;5.15;1.48;;;7.00;99.90;;;;;;6154327;23;20025;-89
2023/04/01 06:45:53;;;;;;;6.15;1.85;;;7.00;99.90;;;;;;6160288;23;20026;-90
2023/04/01 06:48:59;;;;;;;2.28;0.98;;;7.00;99.90;;;;;;6164673;23;20029;-91
2023/04/01 06:52:12;;;;;;;1.73;0.93;;;7.00;99.90;;;;;;6147751;23;20033;-87
2023/04/01 06:55:18;;;;;;;4.13;1.20;;;7.00;99.90;;;;;;6155136;23;20047;-87
2023/04/01 06:58:24;;;;;;;5.40;1.20;;;7.00;99.90;;;;;;6170628;23;20028;-87
2023/04/01 07:01:24;;;;;;;3.35;0.90;;;7.00;99.90;;;;;;6172654;23;20013;-88
2023/04/01 07:04:29;;;;;;;1.70;1.02;;;7.10;99.90;;;;;;6149731;23;20028;-91
2023/04/01 07:07:41;;;;;;;1.92;1.08;;;7.10;99.90;;;;;;6135285;23;20456;-89
2023/04/01 07:10:46;;;;;;;2.88;0.98;;;7.10;99.90;;;;;;6159537;23;20412;-91
2023/04/01 07:13:42;;;;;;;0.77;0.73;;;7.10;99.90;;;;;;6154437;23;20036;-90
2023/04/01 07:16:37;;;;;;;1.10;0.80;;;7.10;99.90;;;;;;6130597;23;20397;-89
2023/04/01 07:19:44;;;;;;;4.13;1.20;;;7.10;99.90;;;;;;6129742;23;20630;-88
2023/04/01 07:22:38;;;;;;;3.45;1.10;;;7.20;1.00;;;;;;6151324;23;20029;-88
2023/04/01 07:25:33;;;;;;;4.32;1.10;;;7.20;1.00;;;;;;6151141;23;20036;-91
2023/04/01 07:28:22;;;;;;;4.88;1.20;;;7.20;99.90;;;;;;6130791;23;20121;-89
2023/04/01 07:31:30;;;;;;;5.57;1.05;;;7.20;1.00;;;;;;6153311;23;20025;-90
2023/04/01 07:34:25;;;;;;;4.25;1.40;;;7.30;1.00;;;;;;6153594;23;20365;-89
2023/04/01 07:37:39;;;;;;;1.90;1.15;;;7.30;1.00;;;;;;6155454;23;20021;-91
2023/04/01 07:40:46;;;;;;;3.35;0.90;;;7.30;1.00;;;;;;6153025;23;20021;-88
2023/04/01 07:44:01;;;;;;;5.45;1.25;;;7.40;1.00;;;;;;6130993;23;20036;-91
2023/04/01 07:47:27;;;;;;;3.30;1.00;;;7.50;1.00;;;;;;6133130;23;20494;-91
2023/04/01 07:50:54;;;;;;;2.15;1.40;;;7.50;1.00;;;;;;6161298;23;20026;-89
2023/04/01 07:54:24;;;;;;;2.40;1.00;;;7.60;99.90;;;;;;6153713;23;20057;-88
2023/04/01 07:57:35;;;;;;;7.88;1.58;;;7.70;99.90;;;;;;6151867;23;20033;-90
2023/04/01 08:00:34;;;;;;;4.45;1.35;;;7.70;99.90;;;;;;6152608;23;20037;-91
2023/04/01 08:03:40;;;;;;;4.07;1.20;;;7.60;99.90;;;;;;6153374;23;20034;-92
2023/04/01 08:06:55;;;;;;;2.40;1.15;;;7.60;99.90;;;;;;6152218;23;20064;-92
2023/04/01 08:10:09;;;;;;;3.35;0.90;;;7.50;99.90;;;;;;6131592;23;20029;-88
2023/04/01 08:13:02;;;;;;;4.15;1.20;;;7.40;99.90;;;;;;6153623;23;20029;-88
2023/04/01 08:16:08;;;;;;;3.13;1.25;;;7.40;78.90;;;;;;6151787;23;20049;-87
2023/04/01 08:19:01;;;;;;;2.55;1.02;;;7.40;99.90;;;;;;6153033;23;20029;-92
2023/04/01 08:21:54;;;;;;;1.33;1.08;;;7.40;99.90;;;;;;6151498;23;20091;-92
2023/04/01 08:24:50;;;;;;;4.25;1.83;;;7.50;99.90;;;;;;6131620;23;20029;-91
2023/04/01 08:27:46;;;;;;;6.40;1.55;;;7.50;99.90;;;;;;6130704;23;20021;-89
2023/04/01 08:31:05;;;;;;;2.30;0.90;;;7.50;99.90;;;;;;6133702;23;20021;-91
2023/04/01 08:33:55;;;;;;;3.13;0.93;;;7.50;99.90;;;;;;6156289;23;20049;-92
2023/04/01 08:36:54;;;;;;;5.07;1.10;;;7.40;1.00;;;;;;6156539;23;20049;-91
2023/04/01 08:39:49;;;;;;;2.35;1.08;;;7.30;99.90;;;;;;6134315;23;20294;-91
2023/04/01 08:42:42;;;;;;;2.65;0.90;;;7.30;99.90;;;;;;6131487;23;20037;-90
2023/04/01 08:45:59;;;;;;;3.95;1.20;;;7.20;99.90;;;;;;6156603;23;20140;-90
2023/04/01 08:49:04;;;;;;;4.32;1.20;;;7.20;99.90;;;;;;6157838;23;20132;-92
2023/04/01 08:52:35;;;;;;;3.83;1.08;;;7.10;1.00;;;;;;6172254;23;20033;-87
2023/04/01 08:55:53;;;;;;;4.55;1.40;;;7.10;99.90;;;;;;6173495;23;20053;-91
2023/04/01 08:58:49;;;;;;;2.50;1.17;;;7.20;1.00;;;;;;6136369;23;20044;-91
2023/04/01 09:01:58;;;;;;;1.48;0.85;;;7.30;99.90;;;;;;6153958;23;20328;-92
2023/04/01 09:05:00;;;;;;;3.15;1.02;;;7.40;99.90;;;;;;6131531;23;20033;-92
2023/04/01 09:08:25;;;;;;;3.42;1.40;;;7.60;1.00;;;;;;6152882;23;20030;-89
2023/04/01 09:11:44;;;;;;;2.85;1.02;;;7.90;1.00;;;;;;6152005;23;20352;-89
2023/04/01 09:14:57;;;;;;;1.67;0.82;;;8.00;99.90;;;;;;6154226;23;20405;-91
2023/04/01 09:18:31;;;;;;;2.28;1.55;;;8.10;95.30;;;;;;6131341;23;20029;-90
2023/04/01 09:21:26;;;;;;;1.50;1.00;;;8.30;3.80;;;;;;6132451;23;20344;-91
2023/04/01 09:24:34;;;;;;;3.72;1.00;;;8.10;1.00;;;;;;6152505;23;20029;-87
2023/04/01 09:27:32;;;;;;;1.65;1.05;;;8.10;99.90;;;;;;6132063;23;20037;-91
2023/04/01 09:30:28;;;;;;;2.80;1.02;;;8.20;99.90;;;;;;6154768;23;20022;-92
2023/04/01 09:36:46;;;;;;;1.25;0.90;;;8.30;99.90;;;;;;6150533;23;20051;-91
2023/04/01 09:39:53;;;;;;;3.30;0.95;;;8.20;99.90;;;;;;6152162;23;20352;-91
2023/04/01 09:42:45;;;;;;;2.15;0.80;;;8.00;99.90;;;;;;6149466;23;20026;-93
2023/04/01 09:45:35;;;;;;;1.40;0.77;;;8.10;99.90;;;;;;6150411;23;20022;-90
2023/04/01 09:48:47;;;;;;;0.90;0.70;;;8.00;99.90;;;;;;6129786;23;20032;-88
2023/04/01 09:51:34;;;;;;;1.05;0.70;;;7.90;99.90;;;;;;6150782;23;20022;-87
2023/04/01 09:54:41;;;;;;;2.25;0.80;;;7.80;99.90;;;;;;6150315;23;20040;-89
2023/04/01 09:57:56;;;;;;;0.73;0.70;;;7.80;99.90;;;;;;6129421;23;20026;-89
2023/04/01 10:01:12;;;;;;;2.03;0.80;;;7.80;1.00;;;;;;6149359;23;20029;-90
2023/04/01 10:04:18;;;;;;;0.93;0.73;;;7.80;99.90;;;;;;6152263;23;20025;-91
2023/04/01 10:07:33;;;;;;;1.95;0.80;;;7.80;99.90;;;;;;6152260;23;20079;-90
2023/04/01 10:10:29;;;;;;;2.00;0.85;;;7.80;1.00;;;;;;6152008;23;20282;-89
2023/04/01 10:13:32;;;;;;;0.80;0.80;;;7.70;99.90;;;;;;6153543;23;20078;-87
2023/04/01 10:16:38;;;;;;;1.48;0.82;;;7.70;99.90;;;;;;6130819;23;20025;-91
2023/04/01 10:19:54;;;;;;;1.48;0.85;;;7.80;99.90;;;;;;6151515;23;20040;-90
2023/04/01 10:22:51;;;;;;;1.58;0.88;;;7.90;99.90;;;;;;6131284;23;20026;-90
2023/04/01 10:25:50;;;;;;;0.80;0.80;;;8.00;99.90;;;;;;6154044;23;20059;-87
2023/04/01 10:28:47;;;;;;;1.35;0.90;;;8.10;1.00;;;;;;6152492;23;20044;-88
2023/04/01 10:31:43;;;;;;;1.48;0.80;;;8.20;1.00;;;;;;6153221;23;20022;-89
2023/04/01 10:34:52;;;;;;;1.25;0.90;;;8.30;99.90;;;;;;6151998;23;20342;-88
2023/04/01 10:38:00;;;;;;;0.80;0.70;;;8.70;99.90;;;;;;6151166;23;20037;-90
2023/04/01 10:41:32;;;;;;;0.70;0.70;;;8.60;1.00;;;;;;6151471;23;20052;-88
2023/04/01 10:44:40;;;;;;;1.40;0.90;;;8.80;1.00;;;;;;6130628;23;20022;-90
2023/04/01 10:47:52;;;;;;;1.17;0.75;;;9.30;1.00;;;;;;6151549;23;20033;-88
2023/04/01 10:51:01;;;;;;;2.63;0.60;;;9.20;99.90;;;;;;6151719;23;20029;-89
2023/04/01 10:54:22;;;;;;;0.93;0.68;;;9.20;99.90;;;;;;6155638;23;20022;-87
2023/04/01 10:57:46;;;;;;;2.15;0.80;;;9.00;99.90;;;;;;6152733;23;20294;-89
2023/04/01 11:01:03;;;;;;;0.50;0.50;;;9.10;99.90;;;;;;6154025;23;20029;-87
2023/04/01 11:04:08;;;;;;;1.17;0.73;;;9.40;99.90;;;;;;6155817;23;20026;-88
2023/04/01 11:07:14;;;;;;;0.80;0.80;;;9.30;99.90;;;;;;6156757;23;20071;-88
2023/04/01 11:10:23;;;;;;;2.38;0.70;;;9.40;99.90;;;;;;6133715;23;20025;-88
2023/04/01 11:13:48;;;;;;;0.60;0.60;;;9.70;99.90;;;;;;6145317;23;20109;-89
2023/04/01 11:16:48;;;;;;;0.68;0.65;;;9.70;50.50;;;;;;6144366;23;20033;-90
2023/04/01 11:19:51;;;;;;;2.05;0.50;;;9.70;1.00;;;;;;6168285;23;20079;-87
2023/04/01 11:22:50;;;;;;;1.42;1.00;;;9.40;1.00;;;;;;6165779;23;20025;-89
2023/04/01 11:26:08;;;;;;;1.05;0.70;;;9.40;1.00;;;;;;6164879;23;20025;-87
2023/04/01 11:29:13;;;;;;;0.40;0.40;;;9.40;1.00;;;;;;6167018;23;20029;-86
2023/04/01 11:32:19;;;;;;;1.00;0.75;;;9.40;1.00;;;;;;6175359;23;20009;-88
2023/04/01 11:35:54;;;;;;;1.65;0.95;;;9.30;1.00;;;;;;6177199;23;20013;-89
2023/04/01 11:39:21;;;;;;;0.88;0.82;;;9.40;1.00;;;;;;6154021;23;20044;-88
2023/04/01 11:42:56;;;;;;;0.68;0.60;;;9.60;1.00;;;;;;6172121;23;20045;-87
2023/04/01 11:45:53;;;;;;;0.50;0.50;;;9.50;99.90;;;;;;6149965;23;20017;-88
2023/04/01 11:49:20;;;;;;;0.50;0.50;;;9.30;99.90;;;;;;6147104;23;20026;-90
2023/04/01 11:56:27;;;;;;;2.70;0.60;;;9.50;99.90;;;;;;6168691;23;20058;-90
2023/04/01 11:59:29;;;;;;;0.82;0.70;;;9.40;99.90;;;;;;6142309;23;20013;-89
2023/04/01 12:02:35;;;;;;;0.98;0.70;;;9.80;99.90;;;;;;6160659;23;20021;-89
2023/04/01 12:05:39;;;;;;;0.50;0.50;;;9.60;99.90;;;;;;6155881;23;20068;-88
2023/04/01 12:09:10;;;;;;;0.50;0.50;;;10.00;99.90;;;;;;6156915;23;20022;-86
2023/04/01 12:12:25;;;;;;;1.13;0.55;;;10.00;99.90;;;;;;6154639;23;20034;-91
2023/04/01 12:15:52;;;;;;;0.55;0.50;;;10.30;99.90;;;;;;6153974;23;20029;-89
2023/04/01 12:18:54;;;;;;;0.57;0.50;;;10.40;99.90;;;;;;6153630;23;20118;-88
2023/04/01 12:22:02;;;;;;;1.17;0.77;;;10.50;99.90;;;;;;6154872;23;20030;-92
2023/04/01 12:25:05;;;;;;;0.60;0.60;;;10.10;99.90;;;;;;6134411;23;20025;-87
2023/04/01 12:28:11;;;;;;;;;;;9.70;99.90;;;;;;6150567;23;20026;-89
2023/04/01 12:31:29;;;;;;;0.70;0.70;;;9.40;99.90;;;;;;6151625;23;19916;-86
2023/04/01 12:34:16;;;;;;;0.55;0.55;;;9.10;99.90;;;;;;6153762;23;20076;-89
2023/04/01 12:37:26;;;;;;;0.52;0.50;;;8.80;99.90;;;;;;6150040;23;20420;-88
2023/04/01 12:40:36;;;;;;;0.70;0.70;;;8.70;99.90;;;;;;6152893;23;20411;-89
2023/04/01 12:44:20;;;;;;;0.50;0.50;;;8.90;99.90;;;;;;6129181;23;20310;-86
2023/04/01 12:47:32;;;;;;;0.50;0.50;;;9.50;99.90;;;;;;6131551;23;20409;-88
2023/04/01 12:50:34;;;;;;;0.85;0.40;;;10.40;99.90;;;;;;6151762;23;20473;-87
2023/04/01 12:53:42;;;;;;;0.73;0.50;;;10.50;99.90;;;;;;6131838;23;20033;-87
2023/04/01 12:56:47;;;;;;;0.70;0.60;;;10.70;68.90;;;;;;6130371;23;20029;-90
2023/04/01 12:59:37;;;;;;;0.50;0.50;;;10.80;42.00;;;;;;6130067;23;20029;-87
2023/04/01 13:03:09;;;;;;;0.50;0.50;;;10.50;2.60;;;;;;6129316;23;20029;-88
2023/04/01 13:06:35;;;;;;;0.40;0.40;;;11.30;1.00;;;;;;6134291;23;20110;-89
2023/04/01 13:10:03;;;;;;;0.40;0.40;;;11.60;1.00;;;;;;6151033;23;20090;-89
2023/04/01 13:13:10;;;;;;;0.57;0.50;;;11.60;1.00;;;;;;6150908;23;20036;-89
2023/04/01 13:16:27;;;;;;;0.45;0.45;;;11.60;1.00;;;;;;6154287;23;20041;-89
2023/04/01 13:19:40;;;;;;;0.50;0.50;;;11.60;1.00;;;;;;6161892;23;20040;-87
2023/04/01 13:22:46;;;;;;;0.57;0.57;;;11.10;1.00;;;;;;6166430;23;20361;-87
2023/04/01 13:26:06;;;;;;;0.40;0.40;;;10.80;1.00;;;;;;6167114;23;20051;-87
2023/04/01 13:29:39;;;;;;;0.50;0.50;;;10.40;1.00;;;;;;6145389;23;20024;-87
2023/04/01 13:32:39;;;;;;;0.40;0.40;;;10.60;1.00;;;;;;6152489;23;20022;-91
2023/04/01 13:36:04;;;;;;;;;;;10.40;1.00;;;;;;6152021;23;20706;-89
2023/04/01 13:39:06;;;;;;;0.50;0.50;;;10.50;1.00;;;;;;6153136;23;20042;-86
2023/04/01 13:42:02;;;;;;;0.50;0.50;;;10.50;1.00;;;;;;6131295;23;20051;-87
2023/04/01 13:45:12;;;;;;;0.50;0.50;;;10.50;1.00;;;;;;6130394;23;20033;-87
2023/04/01 13:48:38;;;;;;;0.40;0.40;;;10.40;1.00;;;;;;6131301;23;20032;-88
2023/04/01 13:51:40;;;;;;;0.68;0.68;;;10.20;1.00;;;;;;6155405;23;20611;-88
2023/04/01 13:55:10;;;;;;;1.45;0.77;;;9.80;1.00;;;;;;6151958;23;20044;-89
2023/04/01 13:57:57;;;;;;;0.60;0.60;;;9.90;7.80;;;;;;6155853;23;20025;-89
2023/04/01 14:01:07;;;;;;;1.38;0.52;;;10.00;12.30;;;;;;6133230;23;20022;-89
2023/04/01 14:04:13;;;;;;;0.55;0.50;;;10.00;10.00;;;;;;6157942;23;20073;-89
2023/04/01 14:07:39;;;;;;;0.60;0.60;;;10.10;18.70;;;;;;6155308;23;20029;-89
2023/04/01 14:10:35;;;;;;;0.60;0.60;;;10.10;6.90;;;;;;6159967;23;20025;-90
2023/04/01 14:13:46;;;;;;;0.60;0.60;;;10.00;13.80;;;;;;6149304;23;20112;-88
2023/04/01 14:16:57;;;;;;;1.52;0.63;;;9.80;20.50;;;;;;6166421;23;20036;-88
2023/04/01 14:20:10;;;;;;;0.50;0.50;;;9.60;60.80;;;;;;6153154;23;20306;-90
2023/04/01 14:23:41;;;;;;;0.60;0.60;;;9.40;99.90;;;;;;6135481;23;20025;-88
2023/04/01 14:26:54;;;;;;;0.60;0.60;;;9.50;99.90;;;;;;6155938;23;20040;-88
2023/04/01 14:30:00;;;;;;;1.35;0.60;;;9.70;99.90;;;;;;6153769;23;20099;-89
2023/04/01 14:32:56;;;;;;;0.40;0.40;;;9.80;99.90;;;;;;6154082;22;20040;-90
2023/04/01 14:36:03;;;;;;;0.50;0.50;;;9.90;97.90;;;;;;6131145;23;20026;-88
2023/04/01 14:39:18;;;;;;;0.50;0.50;;;9.80;14.50;;;;;;6155639;23;20037;-90
2023/04/01 14:42:55;;;;;;;0.55;0.55;;;9.80;1.00;;;;;;6152847;23;20029;-90
2023/04/01 14:46:07;;;;;;;0.63;0.63;;;9.90;1.00;;;;;;6151898;23;20021;-91
2023/04/01 14:49:13;;;;;;;0.85;0.60;;;10.10;1.00;;;;;;6131673;23;20087;-90
2023/04/01 14:52:33;;;;;;;0.60;0.60;;;9.90;1.00;;;;;;6154825;23;20025;-89
2023/04/01 14:55:42;;;;;;;0.70;0.70;;;9.70;1.00;;;;;;6153305;23;20029;-89
2023/04/01 14:58:50;;;;;;;0.50;0.50;;;9.70;1.00;;;;;;6152859;23;20026;-88
2023/04/01 15:01:53;;;;;;;0.57;0.57;;;9.80;1.00;;;;;;6155766;23;20429;-90
2023/04/01 15:05:13;;;;;;;0.50;0.50;;;9.80;1.00;;;;;;6135062;23;20030;-89
2023/04/01 15:08:14;;;;;;;0.50;0.50;;;9.50;1.00;;;;;;6155797;23;20032;-90
2023/04/01 15:11:23;;;;;;;0.50;0.50;;;9.60;1.00;;;;;;6133448;23;20036;-90
2023/04/01 15:14:52;;;;;;;1.33;0.60;;;9.60;1.00;;;;;;6153161;23;20051;-89
2023/04/01 15:17:55;;;;;;;0.60;0.60;;;9.50;1.00;;;;;;6152782;23;20021;-90
2023/04/01 15:21:16;;;;;;;0.93;0.60;;;9.40;1.00;;;;;;6134214;23;20035;-92
2023/04/01 15:24:43;;;;;;;0.98;0.80;;;9.50;1.00;;;;;;6130793;23;20025;-90
2023/04/01 15:27:51;;;;;;;1.15;0.80;;;9.60;1.00;;;;;;6132117;23;20270;-92
2023/04/01 15:30:50;;;;;;;2.50;1.00;;;9.70;1.00;;;;;;6133541;23;20341;-88
2023/04/01 15:34:09;;;;;;;2.47;1.70;;;9.70;1.00;;;;;;6152731;23;20111;-92
2023/04/01 15:37:20;;;;;;;1.30;0.70;;;9.60;1.00;;;;;;6152992;23;20034;-87
2023/04/01 15:40:35;;;;;;;0.98;0.77;;;9.50;20.80;;;;;;6155657;23;20029;-89
2023/04/01 15:43:43;;;;;;;1.40;0.77;;;9.30;72.70;;;;;;6152993;23;20033;-86
2023/04/01 15:46:40;;;;;;;2.17;0.98;;;9.20;99.90;;;;;;6151702;23;20052;-91
2023/04/01 15:49:32;;;;;;;1.80;1.10;;;9.00;99.90;;;;;;6152222;23;20025;-89
2023/04/01 15:52:38;;;;;;;1.73;1.00;;;8.90;99.90;;;;;;6156052;23;20025;-89
2023/04/01 15:56:14;;;;;;;1.13;1.02;;;8.80;99.90;;;;;;6129941;23;20040;-91
2023/04/01 15:59:39;;;;;;;1.80;1.10;;;8.70;99.90;;;;;;6136654;23;20045;-89
2023/04/01 16:02:48;;;;;;;2.05;1.80;;;8.70;1.00;;;;;;6144939;23;20353;-87
2023/04/01 16:06:03;;;;;;;2.20;1.10;;;8.70;1.00;;;;;;6138782;23;20021;-90
2023/04/01 16:09:02;;;;;;;3.50;1.05;;;8.60;1.00;;;;;;6134022;23;20030;-89
2023/04/01 16:12:03;;;;;;;4.47;2.90;;;8.60;1.00;;;;;;6166424;23;20029;-88
2023/04/01 16:15:16;;;;;;;3.83;1.40;;;8.70;1.00;;;;;;6137131;23;20046;-91